sensor_id;sensor_type;location;lat;lon;timestamp;temperature;humidity
6538;DHT22;3302;52.508;13.454;2023-04-15T00:00:09;7.70;99.90
6538;DHT22;3302;52.508;13.454;2023-04-15T00:02:35;7.70;99.90
6538;DHT22;3302;52.508;13.454;2023-04-15T00:05:02;7.70;99.90
6538;DHT22;3302;52.508;13.454;2023-04-15T00:07:28;7.70;99.90
6538;DHT22;3302;52.508;13.454;2023-04-15T00:09:54;7.70;99.90
6538;DHT22;3302;52.508;13.454;2023-04-15T00:12:23;7.70;99.90
6538;DHT22;3302;52.508;13.454;2023-04-15T00:14:48;7.70;99.90
6538;DHT22;3302;52.508;13.454;2023-04-15T00:17:16;7.70;99.90
6538;DHT22;3302;52.508;13.454;2023-04-15T00:19:42;7.70;99.90
6538;DHT22;3302;52.508;13.454;2023-04-15T00:22:09;7.70;99.90
6538;DHT22;3302;52.508;13.454;2023-04-15T00:24:35;7.70;99.90
6538;DHT22;3302;52.508;13.454;2023-04-15T00:27:01;7.80;99.90
6538;DHT22;3302;52.508;13.454;2023-04-15T00:29:27;7.80;99.90
6538;DHT22;3302;52.508;13.454;2023-04-15T00:31:53;7.70;99.90
6538;DHT22;3302;52.508;13.454;2023-04-15T00:34:19;7.80;99.90
6538;DHT22;3302;52.508;13.454;2023-04-15T00:36:44;7.80;99.90
6538;DHT22;3302;52.508;13.454;2023-04-15T00:39:10;7.80;99.90
6538;DHT22;3302;52.508;13.454;2023-04-15T00:41:36;7.80;99.90
6538;DHT22;3302;52.508;13.454;2023-04-15T00:44:07;7.70;99.90
6538;DHT22;3302;52.508;13.454;2023-04-15T00:46:37;7.70;99.90
6538;DHT22;3302;52.508;13.454;2023-04-15T00:49:05;7.70;99.90
6538;DHT22;3302;52.508;13.454;2023-04-15T00:51:31;7.70;99.90
6538;DHT22;3302;52.508;13.454;2023-04-15T00:54:02;7.70;99.90
6538;DHT22;3302;52.508;13.454;2023-04-15T00:56:29;7.70;99.90
6538;DHT22;3302;52.508;13.454;2023-04-15T00:58:56;7.70;99.90
6538;DHT22;3302;52.508;13.454;2023-04-15T01:01:24;7.70;99.90
6538;DHT22;3302;52.508;13.454;2023-04-15T01:03:51;7.70;99.90
6538;DHT22;3302;52.508;13.454;2023-04-15T01:06:17;7.70;99.90
6538;DHT22;3302;52.508;13.454;2023-04-15T01:08:43;7.70;99.90
6538;DHT22;3302;52.508;13.454;2023-04-15T01:11:12;7.70;99.90
6538;DHT22;3302;52.508;13.454;2023-04-15T01:13:38;7.70;99.90
6538;DHT22;3302;52.508;13.454;2023-04-15T01:16:04;7.70;99.90
6538;DHT22;3302;52.508;13.454;2023-04-15T01:18:30;7.70;99.90
6538;DHT22;3302;52.508;13.454;2023-04-15T01:20:57;7.70;99.90
6538;DHT22;3302;52.508;13.454;2023-04-15T01:23:24;7.70;99.90
6538;DHT22;3302;52.508;13.454;2023-04-15T01:25:52;7.70;99.90
6538;DHT22;3302;52.508;13.454;2023-04-15T01:28:18;7.70;99.90
6538;DHT22;3302;52.508;13.454;2023-04-15T01:30:44;7.70;99.90
6538;DHT22;3302;52.508;13.454;2023-04-15T01:33:10;7.70;99.90
6538;DHT22;3302;52.508;13.454;2023-04-15T01:35:36;7.70;99.90
6538;DHT22;3302;52.508;13.454;2023-04-15T01:38:05;7.70;99.90
6538;DHT22;3302;52.508;13.454;2023-04-15T01:40:32;7.70;99.90
6538;DHT22;3302;52.508;13.454;2023-04-15T01:42:59;7.70;99.90
6538;DHT22;3302;52.508;13.454;2023-04-15T01:45:25;7.70;99.90
6538;DHT22;3302;52.508;13.454;2023-04-15T01:47:51;7.70;99.90
6538;DHT22;3302;52.508;13.454;2023-04-15T01:50:17;7.70;99.90
6538;DHT22;3302;52.508;13.454;2023-04-15T01:52:43;7.70;99.90
6538;DHT22;3302;52.508;13.454;2023-04-15T01:55:10;7.70;99.90
6538;DHT22;3302;52.508;13.454;2023-04-15T01:57:35;7.70;99.90
6538;DHT22;3302;52.508;13.454;2023-04-15T02:00:02;7.70;99.90
6538;DHT22;3302;52.508;13.454;2023-04-15T02:02:29;7.70;99.90
6538;DHT22;3302;52.508;13.454;2023-04-15T02:04:55;7.70;99.90
6538;DHT22;3302;52.508;13.454;2023-04-15T02:07:21;7.80;99.90
6538;DHT22;3302;52.508;13.454;2023-04-15T02:09:46;7.80;99.90
6538;DHT22;3302;52.508;13.454;2023-04-15T02:12:12;7.70;99.90
6538;DHT22;3302;52.508;13.454;2023-04-15T02:14:38;7.80;99.90
6538;DHT22;3302;52.508;13.454;2023-04-15T02:17:04;7.70;99.90
6538;DHT22;3302;52.508;13.454;2023-04-15T02:19:35;7.80;99.90
6538;DHT22;3302;52.508;13.454;2023-04-15T02:22:01;7.70;99.90
6538;DHT22;3302;52.508;13.454;2023-04-15T02:24:28;7.80;99.90
6538;DHT22;3302;52.508;13.454;2023-04-15T02:26:55;7.80;99.90
6538;DHT22;3302;52.508;13.454;2023-04-15T02:29:21;7.80;99.90
6538;DHT22;3302;52.508;13.454;2023-04-15T02:31:48;7.80;99.90
6538;DHT22;3302;52.508;13.454;2023-04-15T02:34:14;7.70;99.90
6538;DHT22;3302;52.508;13.454;2023-04-15T02:36:40;7.80;99.90
6538;DHT22;3302;52.508;13.454;2023-04-15T02:39:06;7.80;99.90
6538;DHT22;3302;52.508;13.454;2023-04-15T02:41:31;7.70;99.90
6538;DHT22;3302;52.508;13.454;2023-04-15T02:43:57;7.70;99.90
6538;DHT22;3302;52.508;13.454;2023-04-15T02:46:23;7.80;99.90
6538;DHT22;3302;52.508;13.454;2023-04-15T02:48:49;7.80;99.90
6538;DHT22;3302;52.508;13.454;2023-04-15T02:51:20;7.80;99.90
6538;DHT22;3302;52.508;13.454;2023-04-15T02:53:47;7.80;99.90
6538;DHT22;3302;52.508;13.454;2023-04-15T02:56:14;7.90;99.90
6538;DHT22;3302;52.508;13.454;2023-04-15T02:58:41;7.80;99.90
6538;DHT22;3302;52.508;13.454;2023-04-15T03:01:07;7.90;99.90
6538;DHT22;3302;52.508;13.454;2023-04-15T03:03:36;7.90;99.90
6538;DHT22;3302;52.508;13.454;2023-04-15T03:06:02;7.80;99.90
6538;DHT22;3302;52.508;13.454;2023-04-15T03:08:27;7.80;99.90
6538;DHT22;3302;52.508;13.454;2023-04-15T03:10:53;7.90;99.90
6538;DHT22;3302;52.508;13.454;2023-04-15T03:13:19;7.90;99.90
6538;DHT22;3302;52.508;13.454;2023-04-15T03:15:46;7.90;99.90
6538;DHT22;3302;52.508;13.454;2023-04-15T03:18:12;7.90;99.90
6538;DHT22;3302;52.508;13.454;2023-04-15T03:20:37;7.90;99.90
6538;DHT22;3302;52.508;13.454;2023-04-15T03:23:03;7.90;99.90
6538;DHT22;3302;52.508;13.454;2023-04-15T03:25:29;7.90;99.90
6538;DHT22;3302;52.508;13.454;2023-04-15T03:27:55;8.00;99.90
6538;DHT22;3302;52.508;13.454;2023-04-15T03:30:21;7.90;99.90
6538;DHT22;3302;52.508;13.454;2023-04-15T03:32:47;7.90;99.90
6538;DHT22;3302;52.508;13.454;2023-04-15T03:35:12;7.90;99.90
6538;DHT22;3302;52.508;13.454;2023-04-15T03:37:38;7.90;99.90
6538;DHT22;3302;52.508;13.454;2023-04-15T03:40:04;8.00;99.90
6538;DHT22;3302;52.508;13.454;2023-04-15T03:42:30;8.00;99.90
6538;DHT22;3302;52.508;13.454;2023-04-15T03:44:56;8.00;99.90
6538;DHT22;3302;52.508;13.454;2023-04-15T03:47:22;8.00;99.90
6538;DHT22;3302;52.508;13.454;2023-04-15T03:49:47;8.00;99.90
6538;DHT22;3302;52.508;13.454;2023-04-15T03:52:13;8.00;99.90
6538;DHT22;3302;52.508;13.454;2023-04-15T03:54:39;8.00;99.90
6538;DHT22;3302;52.508;13.454;2023-04-15T03:57:05;8.00;99.90
6538;DHT22;3302;52.508;13.454;2023-04-15T03:59:31;8.00;99.90
6538;DHT22;3302;52.508;13.454;2023-04-15T04:01:56;8.10;99.90
6538;DHT22;3302;52.508;13.454;2023-04-15T04:04:22;8.10;99.90
6538;DHT22;3302;52.508;13.454;2023-04-15T04:06:48;8.10;99.90
6538;DHT22;3302;52.508;13.454;2023-04-15T04:09:14;8.10;99.90
6538;DHT22;3302;52.508;13.454;2023-04-15T04:11:40;8.10;99.90
6538;DHT22;3302;52.508;13.454;2023-04-15T04:14:05;8.10;99.90
6538;DHT22;3302;52.508;13.454;2023-04-15T04:16:31;8.20;99.90
6538;DHT22;3302;52.508;13.454;2023-04-15T04:18:57;8.10;99.90
6538;DHT22;3302;52.508;13.454;2023-04-15T04:21:22;8.10;99.90
6538;DHT22;3302;52.508;13.454;2023-04-15T04:23:48;8.10;99.90
6538;DHT22;3302;52.508;13.454;2023-04-15T04:26:15;8.10;99.90
6538;DHT22;3302;52.508;13.454;2023-04-15T04:28:41;8.20;99.90
6538;DHT22;3302;52.508;13.454;2023-04-15T04:31:06;8.20;99.90
6538;DHT22;3302;52.508;13.454;2023-04-15T04:33:32;8.20;99.90
6538;DHT22;3302;52.508;13.454;2023-04-15T04:35:58;8.20;99.90
6538;DHT22;3302;52.508;13.454;2023-04-15T04:38:24;8.20;99.90
6538;DHT22;3302;52.508;13.454;2023-04-15T04:40:49;8.20;99.90
6538;DHT22;3302;52.508;13.454;2023-04-15T04:43:15;8.20;99.90
6538;DHT22;3302;52.508;13.454;2023-04-15T04:45:41;8.20;99.90
6538;DHT22;3302;52.508;13.454;2023-04-15T04:48:07;8.30;99.90
6538;DHT22;3302;52.508;13.454;2023-04-15T04:50:34;8.20;99.90
6538;DHT22;3302;52.508;13.454;2023-04-15T04:53:01;8.30;99.90
6538;DHT22;3302;52.508;13.454;2023-04-15T04:55:27;8.30;99.90
6538;DHT22;3302;52.508;13.454;2023-04-15T04:57:53;8.20;99.90
6538;DHT22;3302;52.508;13.454;2023-04-15T05:00:18;8.30;99.90
6538;DHT22;3302;52.508;13.454;2023-04-15T05:02:45;8.30;99.90
6538;DHT22;3302;52.508;13.454;2023-04-15T05:05:11;8.30;99.90
6538;DHT22;3302;52.508;13.454;2023-04-15T05:07:37;8.30;99.90
6538;DHT22;3302;52.508;13.454;2023-04-15T05:10:04;8.30;99.90
6538;DHT22;3302;52.508;13.454;2023-04-15T05:12:31;8.40;99.90
6538;DHT22;3302;52.508;13.454;2023-04-15T05:14:57;8.40;99.90
6538;DHT22;3302;52.508;13.454;2023-04-15T05:17:22;8.40;99.90
6538;DHT22;3302;52.508;13.454;2023-04-15T05:19:48;8.40;99.90
6538;DHT22;3302;52.508;13.454;2023-04-15T05:22:14;8.50;99.90
6538;DHT22;3302;52.508;13.454;2023-04-15T05:24:40;8.40;99.90
6538;DHT22;3302;52.508;13.454;2023-04-15T05:27:05;8.40;99.90
6538;DHT22;3302;52.508;13.454;2023-04-15T05:29:33;8.40;99.90
6538;DHT22;3302;52.508;13.454;2023-04-15T05:31:59;8.40;99.90
6538;DHT22;3302;52.508;13.454;2023-04-15T05:34:25;8.40;99.90
6538;DHT22;3302;52.508;13.454;2023-04-15T05:36:51;8.40;99.90
6538;DHT22;3302;52.508;13.454;2023-04-15T05:39:17;8.40;99.90
6538;DHT22;3302;52.508;13.454;2023-04-15T05:41:43;8.40;99.90
6538;DHT22;3302;52.508;13.454;2023-04-15T05:44:09;8.50;99.90
6538;DHT22;3302;52.508;13.454;2023-04-15T05:46:35;8.50;99.90
6538;DHT22;3302;52.508;13.454;2023-04-15T05:49:00;8.50;99.90
6538;DHT22;3302;52.508;13.454;2023-04-15T05:51:26;8.50;99.90
6538;DHT22;3302;52.508;13.454;2023-04-15T05:53:52;8.50;99.90
6538;DHT22;3302;52.508;13.454;2023-04-15T05:56:18;8.50;99.90
6538;DHT22;3302;52.508;13.454;2023-04-15T05:58:45;8.50;99.90
6538;DHT22;3302;52.508;13.454;2023-04-15T06:01:11;8.50;99.90
6538;DHT22;3302;52.508;13.454;2023-04-15T06:03:37;8.60;99.90
6538;DHT22;3302;52.508;13.454;2023-04-15T06:06:03;8.60;99.90
6538;DHT22;3302;52.508;13.454;2023-04-15T06:08:29;8.60;99.90
6538;DHT22;3302;52.508;13.454;2023-04-15T06:10:55;8.70;99.90
6538;DHT22;3302;52.508;13.454;2023-04-15T06:13:21;8.70;99.90
6538;DHT22;3302;52.508;13.454;2023-04-15T06:15:46;8.70;99.90
6538;DHT22;3302;52.508;13.454;2023-04-15T06:18:12;8.70;99.90
6538;DHT22;3302;52.508;13.454;2023-04-15T06:20:38;8.70;99.90
6538;DHT22;3302;52.508;13.454;2023-04-15T06:23:04;8.60;99.90
6538;DHT22;3302;52.508;13.454;2023-04-15T06:25:30;8.70;99.90
6538;DHT22;3302;52.508;13.454;2023-04-15T06:27:56;8.70;99.90
6538;DHT22;3302;52.508;13.454;2023-04-15T06:30:22;8.80;99.90
6538;DHT22;3302;52.508;13.454;2023-04-15T06:32:47;8.70;99.90
6538;DHT22;3302;52.508;13.454;2023-04-15T06:35:13;8.70;99.90
6538;DHT22;3302;52.508;13.454;2023-04-15T06:37:40;8.80;99.90
6538;DHT22;3302;52.508;13.454;2023-04-15T06:40:06;8.80;99.90
6538;DHT22;3302;52.508;13.454;2023-04-15T06:42:33;8.80;99.90
6538;DHT22;3302;52.508;13.454;2023-04-15T06:44:59;8.90;99.90
6538;DHT22;3302;52.508;13.454;2023-04-15T06:47:25;8.80;99.90
6538;DHT22;3302;52.508;13.454;2023-04-15T06:49:51;8.80;99.90
6538;DHT22;3302;52.508;13.454;2023-04-15T06:52:16;8.90;99.90
6538;DHT22;3302;52.508;13.454;2023-04-15T06:54:42;8.90;99.90
6538;DHT22;3302;52.508;13.454;2023-04-15T06:57:08;8.90;99.90
6538;DHT22;3302;52.508;13.454;2023-04-15T06:59:34;9.00;99.90
6538;DHT22;3302;52.508;13.454;2023-04-15T07:02:00;9.00;99.90
6538;DHT22;3302;52.508;13.454;2023-04-15T07:04:26;9.00;99.90
6538;DHT22;3302;52.508;13.454;2023-04-15T07:06:52;9.10;99.90
6538;DHT22;3302;52.508;13.454;2023-04-15T07:09:21;9.10;99.90
6538;DHT22;3302;52.508;13.454;2023-04-15T07:11:47;9.10;99.90
6538;DHT22;3302;52.508;13.454;2023-04-15T07:14:14;9.00;99.90
6538;DHT22;3302;52.508;13.454;2023-04-15T07:16:39;9.10;99.90
6538;DHT22;3302;52.508;13.454;2023-04-15T07:19:05;9.00;99.90
6538;DHT22;3302;52.508;13.454;2023-04-15T07:21:31;9.10;99.90
6538;DHT22;3302;52.508;13.454;2023-04-15T07:23:57;9.00;99.90
6538;DHT22;3302;52.508;13.454;2023-04-15T07:26:23;9.10;99.90
6538;DHT22;3302;52.508;13.454;2023-04-15T07:28:49;9.20;99.90
6538;DHT22;3302;52.508;13.454;2023-04-15T07:31:15;9.10;99.90
6538;DHT22;3302;52.508;13.454;2023-04-15T07:33:41;9.10;99.90
6538;DHT22;3302;52.508;13.454;2023-04-15T07:36:08;9.20;99.90
6538;DHT22;3302;52.508;13.454;2023-04-15T07:38:33;9.00;99.90
6538;DHT22;3302;52.508;13.454;2023-04-15T07:40:59;9.00;99.90
6538;DHT22;3302;52.508;13.454;2023-04-15T07:43:25;9.00;99.90
6538;DHT22;3302;52.508;13.454;2023-04-15T07:45:51;9.10;99.90
6538;DHT22;3302;52.508;13.454;2023-04-15T07:48:17;9.10;99.90
6538;DHT22;3302;52.508;13.454;2023-04-15T07:50:43;9.10;99.90
6538;DHT22;3302;52.508;13.454;2023-04-15T07:53:09;9.00;99.90
6538;DHT22;3302;52.508;13.454;2023-04-15T07:55:34;9.00;99.90
6538;DHT22;3302;52.508;13.454;2023-04-15T07:58:00;9.00;99.90
6538;DHT22;3302;52.508;13.454;2023-04-15T08:00:26;9.00;99.90
6538;DHT22;3302;52.508;13.454;2023-04-15T08:02:52;9.00;99.90
6538;DHT22;3302;52.508;13.454;2023-04-15T08:05:18;9.10;99.90
6538;DHT22;3302;52.508;13.454;2023-04-15T08:07:44;9.00;99.90
6538;DHT22;3302;52.508;13.454;2023-04-15T08:10:11;9.10;99.90
6538;DHT22;3302;52.508;13.454;2023-04-15T08:12:37;9.10;99.90
6538;DHT22;3302;52.508;13.454;2023-04-15T08:15:03;9.20;99.90
6538;DHT22;3302;52.508;13.454;2023-04-15T08:17:29;9.10;99.90
6538;DHT22;3302;52.508;13.454;2023-04-15T08:19:55;9.10;99.90
6538;DHT22;3302;52.508;13.454;2023-04-15T08:22:21;9.10;99.90
6538;DHT22;3302;52.508;13.454;2023-04-15T08:24:47;9.10;99.90
6538;DHT22;3302;52.508;13.454;2023-04-15T08:27:13;9.10;99.90
6538;DHT22;3302;52.508;13.454;2023-04-15T08:29:39;9.10;99.90
6538;DHT22;3302;52.508;13.454;2023-04-15T08:32:05;9.20;99.90
6538;DHT22;3302;52.508;13.454;2023-04-15T08:34:31;9.00;99.90
6538;DHT22;3302;52.508;13.454;2023-04-15T08:36:57;9.10;99.90
6538;DHT22;3302;52.508;13.454;2023-04-15T08:39:22;9.10;99.90
6538;DHT22;3302;52.508;13.454;2023-04-15T08:42:02;9.10;99.90
6538;DHT22;3302;52.508;13.454;2023-04-15T08:44:33;9.20;99.90
6538;DHT22;3302;52.508;13.454;2023-04-15T08:47:03;9.30;99.90
6538;DHT22;3302;52.508;13.454;2023-04-15T08:49:32;9.20;99.90
6538;DHT22;3302;52.508;13.454;2023-04-15T08:51:59;9.20;99.90
6538;DHT22;3302;52.508;13.454;2023-04-15T08:54:26;9.30;99.90
6538;DHT22;3302;52.508;13.454;2023-04-15T08:56:52;9.20;99.90
6538;DHT22;3302;52.508;13.454;2023-04-15T08:59:22;9.30;99.90
6538;DHT22;3302;52.508;13.454;2023-04-15T09:01:49;9.30;99.90
6538;DHT22;3302;52.508;13.454;2023-04-15T09:04:17;9.30;99.90
6538;DHT22;3302;52.508;13.454;2023-04-15T09:06:44;9.30;99.90
6538;DHT22;3302;52.508;13.454;2023-04-15T09:09:11;9.20;99.90
6538;DHT22;3302;52.508;13.454;2023-04-15T09:11:37;9.20;99.90
6538;DHT22;3302;52.508;13.454;2023-04-15T09:14:03;9.30;99.90
6538;DHT22;3302;52.508;13.454;2023-04-15T09:16:29;9.30;99.90
6538;DHT22;3302;52.508;13.454;2023-04-15T09:18:55;9.40;99.90
6538;DHT22;3302;52.508;13.454;2023-04-15T09:21:21;9.50;99.90
6538;DHT22;3302;52.508;13.454;2023-04-15T09:23:59;9.50;99.90
6538;DHT22;3302;52.508;13.454;2023-04-15T09:26:37;9.50;99.90
6538;DHT22;3302;52.508;13.454;2023-04-15T09:29:09;9.60;99.90
6538;DHT22;3302;52.508;13.454;2023-04-15T09:31:36;9.70;99.90
6538;DHT22;3302;52.508;13.454;2023-04-15T09:34:02;9.70;99.90
6538;DHT22;3302;52.508;13.454;2023-04-15T09:36:28;9.70;99.90
6538;DHT22;3302;52.508;13.454;2023-04-15T09:38:56;9.80;99.90
6538;DHT22;3302;52.508;13.454;2023-04-15T09:41:22;9.90;99.90
6538;DHT22;3302;52.508;13.454;2023-04-15T09:43:48;9.90;99.90
6538;DHT22;3302;52.508;13.454;2023-04-15T09:46:14;9.90;99.90
6538;DHT22;3302;52.508;13.454;2023-04-15T09:48:40;9.90;99.90
6538;DHT22;3302;52.508;13.454;2023-04-15T09:51:06;9.90;99.90
6538;DHT22;3302;52.508;13.454;2023-04-15T09:53:34;9.90;99.90
6538;DHT22;3302;52.508;13.454;2023-04-15T09:56:00;9.90;99.90
6538;DHT22;3302;52.508;13.454;2023-04-15T09:58:31;10.00;99.90
6538;DHT22;3302;52.508;13.454;2023-04-15T10:00:59;10.00;99.90
6538;DHT22;3302;52.508;13.454;2023-04-15T10:03:27;10.00;99.90
6538;DHT22;3302;52.508;13.454;2023-04-15T10:05:55;10.00;99.90
6538;DHT22;3302;52.508;13.454;2023-04-15T10:08:23;10.00;99.90
6538;DHT22;3302;52.508;13.454;2023-04-15T10:10:50;10.00;99.90
6538;DHT22;3302;52.508;13.454;2023-04-15T10:13:22;10.00;99.90
6538;DHT22;3302;52.508;13.454;2023-04-15T10:18:25;10.00;99.90
6538;DHT22;3302;52.508;13.454;2023-04-15T10:20:52;10.00;99.90
6538;DHT22;3302;52.508;13.454;2023-04-15T10:23:19;10.10;99.90
6538;DHT22;3302;52.508;13.454;2023-04-15T10:25:46;10.10;99.90
6538;DHT22;3302;52.508;13.454;2023-04-15T10:28:15;10.00;99.90
6538;DHT22;3302;52.508;13.454;2023-04-15T10:30:42;10.00;99.90
6538;DHT22;3302;52.508;13.454;2023-04-15T10:33:09;10.00;99.90
6538;DHT22;3302;52.508;13.454;2023-04-15T10:35:36;10.10;99.90
6538;DHT22;3302;52.508;13.454;2023-04-15T10:38:02;10.10;99.90
6538;DHT22;3302;52.508;13.454;2023-04-15T10:40:49;10.20;99.90
6538;DHT22;3302;52.508;13.454;2023-04-15T10:43:24;10.10;99.90
6538;DHT22;3302;52.508;13.454;2023-04-15T10:45:52;10.10;99.90
6538;DHT22;3302;52.508;13.454;2023-04-15T10:48:18;10.10;99.90
6538;DHT22;3302;52.508;13.454;2023-04-15T10:50:55;10.20;99.90
6538;DHT22;3302;52.508;13.454;2023-04-15T10:53:27;10.20;99.90
6538;DHT22;3302;52.508;13.454;2023-04-15T10:55:53;10.20;99.90
6538;DHT22;3302;52.508;13.454;2023-04-15T10:58:23;10.20;99.90
6538;DHT22;3302;52.508;13.454;2023-04-15T11:00:53;10.20;99.90
6538;DHT22;3302;52.508;13.454;2023-04-15T11:03:38;10.30;99.90
6538;DHT22;3302;52.508;13.454;2023-04-15T11:06:05;10.30;99.90
6538;DHT22;3302;52.508;13.454;2023-04-15T11:08:57;10.40;99.90
6538;DHT22;3302;52.508;13.454;2023-04-15T11:14:27;10.20;99.90
6538;DHT22;3302;52.508;13.454;2023-04-15T11:16:53;10.30;99.90
6538;DHT22;3302;52.508;13.454;2023-04-15T11:19:18;10.20;99.90
6538;DHT22;3302;52.508;13.454;2023-04-15T11:21:44;10.20;99.90
6538;DHT22;3302;52.508;13.454;2023-04-15T11:24:10;10.30;99.90
6538;DHT22;3302;52.508;13.454;2023-04-15T11:26:36;10.30;99.90
6538;DHT22;3302;52.508;13.454;2023-04-15T11:29:01;10.30;99.90
6538;DHT22;3302;52.508;13.454;2023-04-15T11:31:27;10.30;99.90
6538;DHT22;3302;52.508;13.454;2023-04-15T11:33:55;10.30;99.90
6538;DHT22;3302;52.508;13.454;2023-04-15T11:36:26;10.30;99.90
6538;DHT22;3302;52.508;13.454;2023-04-15T11:38:52;10.30;99.90
6538;DHT22;3302;52.508;13.454;2023-04-15T11:41:22;10.30;99.90
6538;DHT22;3302;52.508;13.454;2023-04-15T11:43:49;10.40;99.90
6538;DHT22;3302;52.508;13.454;2023-04-15T11:46:15;10.40;99.90
6538;DHT22;3302;52.508;13.454;2023-04-15T11:48:43;10.40;99.90
6538;DHT22;3302;52.508;13.454;2023-04-15T11:51:10;10.30;99.90
6538;DHT22;3302;52.508;13.454;2023-04-15T11:56:02;10.30;99.90
6538;DHT22;3302;52.508;13.454;2023-04-15T11:58:28;10.30;99.90
6538;DHT22;3302;52.508;13.454;2023-04-15T12:00:56;10.30;99.90
6538;DHT22;3302;52.508;13.454;2023-04-15T12:03:25;10.30;99.90
6538;DHT22;3302;52.508;13.454;2023-04-15T12:08:59;10.30;99.90
6538;DHT22;3302;52.508;13.454;2023-04-15T12:14:02;10.30;99.90
6538;DHT22;3302;52.508;13.454;2023-04-15T12:16:28;10.40;99.90
6538;DHT22;3302;52.508;13.454;2023-04-15T12:18:56;10.40;99.90
6538;DHT22;3302;52.508;13.454;2023-04-15T12:21:23;10.40;99.90
6538;DHT22;3302;52.508;13.454;2023-04-15T12:23:50;10.40;99.90
6538;DHT22;3302;52.508;13.454;2023-04-15T12:26:17;10.40;99.90
6538;DHT22;3302;52.508;13.454;2023-04-15T12:28:43;10.50;99.90
6538;DHT22;3302;52.508;13.454;2023-04-15T12:31:10;10.50;99.90
6538;DHT22;3302;52.508;13.454;2023-04-15T12:33:37;10.60;99.90
6538;DHT22;3302;52.508;13.454;2023-04-15T12:36:03;10.60;99.90
6538;DHT22;3302;52.508;13.454;2023-04-15T12:38:29;10.70;99.90
6538;DHT22;3302;52.508;13.454;2023-04-15T12:40:57;10.60;99.90
6538;DHT22;3302;52.508;13.454;2023-04-15T12:43:23;10.60;99.90
6538;DHT22;3302;52.508;13.454;2023-04-15T12:45:49;10.70;99.90
6538;DHT22;3302;52.508;13.454;2023-04-15T12:48:15;10.70;99.90
6538;DHT22;3302;52.508;13.454;2023-04-15T12:50:41;10.70;99.90
6538;DHT22;3302;52.508;13.454;2023-04-15T12:53:07;10.80;99.90
6538;DHT22;3302;52.508;13.454;2023-04-15T12:55:33;10.80;99.90
6538;DHT22;3302;52.508;13.454;2023-04-15T12:57:59;10.80;99.90
6538;DHT22;3302;52.508;13.454;2023-04-15T13:00:25;10.80;99.90
6538;DHT22;3302;52.508;13.454;2023-04-15T13:02:51;10.80;99.90
6538;DHT22;3302;52.508;13.454;2023-04-15T13:05:16;10.90;99.90
6538;DHT22;3302;52.508;13.454;2023-04-15T13:07:42;10.90;99.90
6538;DHT22;3302;52.508;13.454;2023-04-15T13:10:08;10.90;99.90
6538;DHT22;3302;52.508;13.454;2023-04-15T13:12:34;11.00;99.90
6538;DHT22;3302;52.508;13.454;2023-04-15T13:15:03;10.90;99.90
6538;DHT22;3302;52.508;13.454;2023-04-15T13:17:29;10.90;99.90
6538;DHT22;3302;52.508;13.454;2023-04-15T13:19:55;10.90;99.90
6538;DHT22;3302;52.508;13.454;2023-04-15T13:22:21;10.80;99.90
6538;DHT22;3302;52.508;13.454;2023-04-15T13:24:47;10.80;99.90
6538;DHT22;3302;52.508;13.454;2023-04-15T13:27:13;10.80;99.90
6538;DHT22;3302;52.508;13.454;2023-04-15T13:29:38;10.80;99.90
6538;DHT22;3302;52.508;13.454;2023-04-15T13:32:05;10.90;99.90
6538;DHT22;3302;52.508;13.454;2023-04-15T13:34:31;11.00;99.90
6538;DHT22;3302;52.508;13.454;2023-04-15T13:36:57;10.90;99.90
6538;DHT22;3302;52.508;13.454;2023-04-15T13:39:23;10.90;99.90
6538;DHT22;3302;52.508;13.454;2023-04-15T13:41:48;10.90;99.90
6538;DHT22;3302;52.508;13.454;2023-04-15T13:44:14;10.90;99.90
6538;DHT22;3302;52.508;13.454;2023-04-15T13:46:40;11.00;99.90
6538;DHT22;3302;52.508;13.454;2023-04-15T13:49:08;11.00;99.90
6538;DHT22;3302;52.508;13.454;2023-04-15T13:51:34;11.00;99.90
6538;DHT22;3302;52.508;13.454;2023-04-15T13:54:03;11.00;99.90
6538;DHT22;3302;52.508;13.454;2023-04-15T13:56:28;11.00;99.90
6538;DHT22;3302;52.508;13.454;2023-04-15T13:58:54;11.00;99.90
6538;DHT22;3302;52.508;13.454;2023-04-15T14:01:24;11.00;99.90
6538;DHT22;3302;52.508;13.454;2023-04-15T14:03:49;11.00;99.90
6538;DHT22;3302;52.508;13.454;2023-04-15T14:06:16;10.90;99.90
6538;DHT22;3302;52.508;13.454;2023-04-15T14:08:41;10.90;99.90
6538;DHT22;3302;52.508;13.454;2023-04-15T14:11:07;10.90;99.90
6538;DHT22;3302;52.508;13.454;2023-04-15T14:13:33;10.90;99.90
6538;DHT22;3302;52.508;13.454;2023-04-15T14:15:59;10.90;99.90
6538;DHT22;3302;52.508;13.454;2023-04-15T14:18:25;10.90;99.90
6538;DHT22;3302;52.508;13.454;2023-04-15T14:20:50;10.90;99.90
6538;DHT22;3302;52.508;13.454;2023-04-15T14:23:16;10.90;99.90
6538;DHT22;3302;52.508;13.454;2023-04-15T14:25:42;10.90;99.90
6538;DHT22;3302;52.508;13.454;2023-04-15T14:28:08;10.90;99.90
6538;DHT22;3302;52.508;13.454;2023-04-15T14:30:34;10.90;99.90
6538;DHT22;3302;52.508;13.454;2023-04-15T14:33:00;10.90;99.90
6538;DHT22;3302;52.508;13.454;2023-04-15T14:35:26;10.90;99.90
6538;DHT22;3302;52.508;13.454;2023-04-15T14:37:52;10.90;99.90
6538;DHT22;3302;52.508;13.454;2023-04-15T14:40:18;10.80;99.90
6538;DHT22;3302;52.508;13.454;2023-04-15T14:42:44;10.70;99.90
6538;DHT22;3302;52.508;13.454;2023-04-15T14:45:10;10.80;99.90
6538;DHT22;3302;52.508;13.454;2023-04-15T14:47:36;10.80;99.90
6538;DHT22;3302;52.508;13.454;2023-04-15T14:50:02;10.80;99.90
6538;DHT22;3302;52.508;13.454;2023-04-15T14:52:30;10.80;99.90
6538;DHT22;3302;52.508;13.454;2023-04-15T14:54:57;10.90;99.90
6538;DHT22;3302;52.508;13.454;2023-04-15T14:57:23;10.80;99.90
6538;DHT22;3302;52.508;13.454;2023-04-15T14:59:49;10.90;99.90
6538;DHT22;3302;52.508;13.454;2023-04-15T15:02:15;10.90;99.90
6538;DHT22;3302;52.508;13.454;2023-04-15T15:04:40;10.80;99.90
6538;DHT22;3302;52.508;13.454;2023-04-15T15:07:06;10.70;99.90
6538;DHT22;3302;52.508;13.454;2023-04-15T15:09:32;10.80;99.90
6538;DHT22;3302;52.508;13.454;2023-04-15T15:11:58;10.80;99.90
6538;DHT22;3302;52.508;13.454;2023-04-15T15:14:23;10.70;99.90
6538;DHT22;3302;52.508;13.454;2023-04-15T15:16:49;10.80;99.90
6538;DHT22;3302;52.508;13.454;2023-04-15T15:19:15;10.70;99.90
6538;DHT22;3302;52.508;13.454;2023-04-15T15:21:41;10.70;99.90
6538;DHT22;3302;52.508;13.454;2023-04-15T15:24:07;10.70;99.90
6538;DHT22;3302;52.508;13.454;2023-04-15T15:26:32;10.70;99.90
6538;DHT22;3302;52.508;13.454;2023-04-15T15:28:58;10.60;99.90
6538;DHT22;3302;52.508;13.454;2023-04-15T15:31:24;10.60;99.90
6538;DHT22;3302;52.508;13.454;2023-04-15T15:33:50;10.60;99.90
6538;DHT22;3302;52.508;13.454;2023-04-15T15:36:17;10.70;99.90
6538;DHT22;3302;52.508;13.454;2023-04-15T15:38:43;10.70;99.90
6538;DHT22;3302;52.508;13.454;2023-04-15T15:41:08;10.70;99.90
6538;DHT22;3302;52.508;13.454;2023-04-15T15:43:34;10.70;99.90
6538;DHT22;3302;52.508;13.454;2023-04-15T15:46:00;10.70;99.90
6538;DHT22;3302;52.508;13.454;2023-04-15T15:48:26;10.70;99.90
6538;DHT22;3302;52.508;13.454;2023-04-15T15:50:52;10.70;99.90
6538;DHT22;3302;52.508;13.454;2023-04-15T15:53:18;10.70;99.90
6538;DHT22;3302;52.508;13.454;2023-04-15T15:55:48;10.70;99.90
6538;DHT22;3302;52.508;13.454;2023-04-15T15:58:14;10.60;99.90
6538;DHT22;3302;52.508;13.454;2023-04-15T16:00:40;10.60;99.90
6538;DHT22;3302;52.508;13.454;2023-04-15T16:03:06;10.60;99.90